Chornomors'Ke, Ukraine
Current Conditions -  °F | °C
As of 12:30 AM on Saturday 20 Dec 2014 (Local Time) from URFF Reporting Station
Haze Haze  
Wind Chill: 30°   Ceiling: 2200
Heat Index: 37°   Visibility: 3mi
Dew Point: 34°   Wind: 11mph
Humidity: 87%   Direction: 190°S
Pressure: 30.12"   Gusts: NA
Location:  45.52°N, 32.7°E
Report Text: URFF 192130Z 19005MPS 5000 BR BKN022 03/01 Q1020 19190060NOSIG
Loading
Personal Weather Stations






























Interactive Weather Map New forecast layout! Learn more

10-Day Weather Forecast

Advertisements
Track Severe Weather on mobile